Time,TemperatureF,DewpointF,PressureIn,WindDirection,WindDirectionDegrees,WindSpeedMPH,WindSpeedGustMPH,Humidity,HourlyPrecipIn,Conditions,Clouds,dailyrainin,SolarRadiationWatts/m^2,SoftwareType,DateUTC
2013-01-17 00:20:00,20.9,20.2,30.25,South,181,0.0,0.0,97,0.00,,,0.00,0,Wunderground v.1.15,2013-01-17 08:20:00,
2013-01-17 00:25:00,20.9,20.2,30.25,South,181,0.0,0.0,97,0.00,,,0.00,0,Wunderground v.1.15,2013-01-17 08:25:00,
2013-01-17 00:30:00,20.8,20.1,30.25,South,181,0.0,0.0,97,0.00,,,0.00,0,Wunderground v.1.15,2013-01-17 08:30:00,
2013-01-17 00:35:00,20.6,19.9,30.25,South,181,0.0,0.0,97,0.00,,,0.00,0,Wunderground v.1.15,2013-01-17 08:35:00,
2013-01-17 00:40:00,20.4,19.7,30.25,South,181,0.0,0.0,97,0.00,,,0.00,0,Wunderground v.1.15,2013-01-17 08:40:00,
2013-01-17 00:50:00,20.3,19.6,30.25,South,181,0.0,0.0,97,0.00,,,0.00,0,Wunderground v.1.15,2013-01-17 08:50:00,
2013-01-17 01:00:00,20.1,19.4,30.26,South,181,0.0,0.0,97,0.00,,,0.00,0,Wunderground v.1.15,2013-01-17 09:00:00,
2013-01-17 01:10:00,19.9,19.2,30.26,South,181,0.0,0.0,97,0.00,,,0.00,0,Wunderground v.1.15,2013-01-17 09:10:00,
2013-01-17 01:20:00,19.9,19.4,30.26,South,181,0.0,0.0,98,0.00,,,0.00,0,Wunderground v.1.15,2013-01-17 09:20:00,
2013-01-17 01:30:00,20.2,19.7,30.26,South,181,0.0,0.0,98,0.00,,,0.00,0,Wunderground v.1.15,2013-01-17 09:30:00,
2013-01-17 01:40:00,20.0,19.5,30.26,South,181,0.0,0.0,98,0.00,,,0.00,0,Wunderground v.1.15,2013-01-17 09:40:00,
2013-01-17 01:50:00,19.4,18.9,30.26,South,176,0.0,0.0,98,0.00,,,0.00,0,Wunderground v.1.15,2013-01-17 09:50:00,
2013-01-17 02:00:00,19.0,18.5,30.26,South,177,0.0,0.0,98,0.00,,,0.00,0,Wunderground v.1.15,2013-01-17 10:00:00,
2013-01-17 02:10:00,18.7,18.2,30.26,South,177,2.0,2.0,98,0.00,,,0.00,0,Wunderground v.1.15,2013-01-17 10:10:00,
2013-01-17 02:20:00,18.7,18.2,30.26,South,177,1.0,2.0,98,0.00,,,0.00,0,Wunderground v.1.15,2013-01-17 10:20:00,
2013-01-17 02:30:00,18.4,17.9,30.26,South,177,0.0,0.0,98,0.00,,,0.00,0,Wunderground v.1.15,2013-01-17 10:30:00,
2013-01-17 02:40:00,18.2,17.7,30.26,South,177,0.0,0.0,98,0.00,,,0.00,0,Wunderground v.1.15,2013-01-17 10:40:00,
2013-01-17 02:50:00,18.1,17.6,30.26,South,177,0.0,0.0,98,0.00,,,0.00,0,Wunderground v.1.15,2013-01-17 10:50:00,
2013-01-17 03:00:00,18.1,17.9,30.26,South,177,0.0,0.0,99,0.00,,,0.00,0,Wunderground v.1.15,2013-01-17 11:00:00,
2013-01-17 03:10:00,17.8,17.6,30.25,South,185,1.0,1.0,99,0.00,,,0.00,0,Wunderground v.1.15,2013-01-17 11:10:00,
2013-01-17 03:20:00,17.5,17.0,30.25,South,185,0.0,0.0,98,0.00,,,0.00,0,Wunderground v.1.15,2013-01-17 11:20:00,
2013-01-17 03:30:00,17.2,17.0,30.24,South,185,0.0,0.0,99,0.00,,,0.00,0,Wunderground v.1.15,2013-01-17 11:30:00,
2013-01-17 03:40:00,16.9,16.4,30.24,South,185,0.0,0.0,98,0.00,,,0.00,0,Wunderground v.1.15,2013-01-17 11:40:00,
2013-01-17 03:50:00,16.8,16.6,30.24,South,185,0.0,0.0,99,0.00,,,0.00,0,Wunderground v.1.15,2013-01-17 11:50:00,
2013-01-17 04:00:00,16.7,16.2,30.24,South,185,0.0,0.0,98,0.00,,,0.00,0,Wunderground v.1.15,2013-01-17 12:00:00,
2013-01-17 04:10:00,16.9,16.7,30.23,South,185,0.0,0.0,99,0.00,,,0.00,0,Wunderground v.1.15,2013-01-17 12:10:00,
2013-01-17 04:20:00,16.8,16.3,30.23,South,185,0.0,0.0,98,0.00,,,0.00,0,Wunderground v.1.15,2013-01-17 12:20:00,
2013-01-17 04:30:00,16.3,15.8,30.23,South,185,0.0,0.0,98,0.00,,,0.00,0,Wunderground v.1.15,2013-01-17 12:30:00,
2013-01-17 04:40:00,16.1,15.6,30.23,South,185,0.0,0.0,98,0.00,,,0.00,0,Wunderground v.1.15,2013-01-17 12:40:00,
2013-01-17 04:50:00,16.0,15.5,30.23,South,185,0.0,0.0,98,0.00,,,0.00,0,Wunderground v.1.15,2013-01-17 12:50:00,
2013-01-17 05:00:00,15.8,15.3,30.23,South,185,0.0,0.0,98,0.00,,,0.00,0,Wunderground v.1.15,2013-01-17 13:00:00,
2013-01-17 05:10:00,15.4,14.9,30.23,South,185,0.0,0.0,98,0.00,,,0.00,0,Wunderground v.1.15,2013-01-17 13:10:00,
2013-01-17 05:30:00,15.0,14.5,30.22,South,185,0.0,0.0,98,0.00,,,0.00,0,Wunderground v.1.15,2013-01-17 13:30:00,
2013-01-17 05:40:00,14.8,14.3,30.22,South,185,0.0,0.0,98,0.00,,,0.00,0,Wunderground v.1.15,2013-01-17 13:40:00,
2013-01-17 05:50:00,14.5,13.8,30.22,South,185,0.0,0.0,97,0.00,,,0.00,0,Wunderground v.1.15,2013-01-17 13:50:00,
2013-01-17 06:00:00,14.4,13.7,30.22,South,185,0.0,0.0,97,0.00,,,0.00,0,Wunderground v.1.15,2013-01-17 14:00:00,
2013-01-17 06:10:00,14.3,13.6,30.22,South,185,0.0,0.0,97,0.00,,,0.00,0,Wunderground v.1.15,2013-01-17 14:10:00,
2013-01-17 06:20:00,14.1,13.4,30.22,South,185,0.0,0.0,97,0.00,,,0.00,0,Wunderground v.1.15,2013-01-17 14:20:00,
2013-01-17 06:30:00,13.9,13.2,30.22,South,185,0.0,0.0,97,0.00,,,0.00,0,Wunderground v.1.15,2013-01-17 14:30:00,
2013-01-17 06:40:00,13.6,12.9,30.23,South,185,3.0,3.0,97,0.00,,,0.00,0,Wunderground v.1.15,2013-01-17 14:40:00,
2013-01-17 06:50:00,13.4,12.7,30.23,South,185,0.0,0.0,97,0.00,,,0.00,0,Wunderground v.1.15,2013-01-17 14:50:00,
2013-01-17 07:00:00,13.3,12.6,30.23,South,185,0.0,0.0,97,0.00,,,0.00,0,Wunderground v.1.15,2013-01-17 15:00:00,
2013-01-17 07:10:00,13.3,12.4,30.24,South,185,1.0,1.0,96,0.00,,,0.00,0,Wunderground v.1.15,2013-01-17 15:10:00,
2013-01-17 07:20:00,13.0,12.1,30.24,South,185,0.0,0.0,96,0.00,,,0.00,0,Wunderground v.1.15,2013-01-17 15:20:00,
2013-01-17 07:30:00,13.1,12.4,30.24,South,185,0.0,0.0,97,0.00,,,0.00,0,Wunderground v.1.15,2013-01-17 15:30:00,
2013-01-17 10:30:00,35.4,25.5,30.24,ESE,118,0.0,0.0,67,0.00,,,0.00,0,Wunderground v.1.15,2013-01-17 18:30:00,
2013-01-17 10:40:00,36.1,25.5,30.24,SE,136,0.0,0.0,65,0.00,,,0.00,0,Wunderground v.1.15,2013-01-17 18:40:00,
2013-01-17 10:50:00,35.8,25.5,30.24,SE,132,0.0,0.0,66,0.00,,,0.00,0,Wunderground v.1.15,2013-01-17 18:50:00,
2013-01-17 11:01:00,36.7,26.4,30.23,SE,132,0.0,0.0,66,0.00,,,0.00,0,Wunderground v.1.15,2013-01-17 19:01:00,
2013-01-17 11:10:00,37.9,26.8,30.23,SE,132,0.0,0.0,64,0.00,,,0.00,0,Wunderground v.1.15,2013-01-17 19:10:00,
2013-01-17 11:20:00,39.2,27.7,30.22,East,82,5.0,5.0,63,0.00,,,0.00,0,Wunderground v.1.15,2013-01-17 19:20:00,
2013-01-17 11:30:00,40.3,28.3,30.22,ESE,111,2.0,2.0,62,0.00,,,0.00,0,Wunderground v.1.15,2013-01-17 19:30:00,
2013-01-17 11:40:00,41.1,28.7,30.21,ENE,75,1.0,2.0,61,0.00,,,0.00,0,Wunderground v.1.15,2013-01-17 19:40:00,
2013-01-17 11:50:00,42.3,29.4,30.21,SE,124,3.0,3.0,60,0.00,,,0.00,0,Wunderground v.1.15,2013-01-17 19:50:00,
2013-01-17 12:00:00,43.3,29.9,30.20,SE,130,2.0,2.0,59,0.00,,,0.00,0,Wunderground v.1.15,2013-01-17 20:00:00,
2013-01-17 12:10:00,44.3,29.6,30.20,East,99,2.0,2.0,56,0.00,,,0.00,0,Wunderground v.1.15,2013-01-17 20:10:00,
2013-01-17 12:20:00,44.6,29.9,30.19,East,99,0.0,0.0,56,0.00,,,0.00,0,Wunderground v.1.15,2013-01-17 20:20:00,
2013-01-17 12:30:00,45.4,30.2,30.19,East,94,1.0,1.0,55,0.00,,,0.00,0,Wunderground v.1.15,2013-01-17 20:30:00,
2013-01-17 12:40:00,46.2,30.5,30.19,East,94,0.0,0.0,54,0.00,,,0.00,0,Wunderground v.1.15,2013-01-17 20:40:00,
2013-01-17 12:50:00,45.9,30.2,30.18,NNE,32,1.0,1.0,54,0.00,,,0.00,0,Wunderground v.1.15,2013-01-17 20:50:00,
2013-01-17 13:01:00,46.5,30.7,30.18,NNE,29,0.0,0.0,54,0.00,,,0.00,0,Wunderground v.1.15,2013-01-17 21:01:00,
2013-01-17 13:10:00,46.4,30.2,30.18,NNE,13,1.0,2.0,53,0.00,,,0.00,0,Wunderground v.1.15,2013-01-17 21:10:00,
2013-01-17 13:20:00,47.6,30.3,30.17,East,90,1.0,4.0,51,0.00,,,0.00,0,Wunderground v.1.15,2013-01-17 21:20:00,
2013-01-17 13:30:00,48.5,30.7,30.17,NE,54,2.0,3.0,50,0.00,,,0.00,0,Wunderground v.1.15,2013-01-17 21:30:00,
2013-01-17 13:40:00,48.5,30.2,30.17,NE,54,3.0,3.0,49,0.00,,,0.00,0,Wunderground v.1.15,2013-01-17 21:40:00,
2013-01-17 13:50:00,48.4,30.1,30.16,NNE,19,2.0,2.0,49,0.00,,,0.00,0,Wunderground v.1.15,2013-01-17 21:50:00,
2013-01-17 14:00:00,48.7,29.9,30.16,NNE,27,2.0,2.0,48,0.00,,,0.00,0,Wunderground v.1.15,2013-01-17 22:00:00,
2013-01-17 14:10:00,49.1,29.7,30.16,NNE,27,4.0,4.0,47,0.00,,,0.00,0,Wunderground v.1.15,2013-01-17 22:10:00,
2013-01-17 14:20:00,49.4,29.5,30.16,NNE,27,0.0,0.0,46,0.00,,,0.00,0,Wunderground v.1.15,2013-01-17 22:20:00,
2013-01-17 14:30:00,50.0,30.0,30.15,ENE,63,2.0,2.0,46,0.00,,,0.00,0,Wunderground v.1.15,2013-01-17 22:30:00,
2013-01-17 14:40:00,50.1,30.1,30.15,North,6,0.0,3.0,46,0.00,,,0.00,0,Wunderground v.1.15,2013-01-17 22:40:00,
2013-01-17 14:50:00,50.8,30.7,30.15,ENE,57,0.0,2.0,46,0.00,,,0.00,0,Wunderground v.1.15,2013-01-17 22:50:00,
2013-01-17 15:00:00,51.2,30.6,30.15,NE,56,2.0,2.0,45,0.00,,,0.00,0,Wunderground v.1.15,2013-01-17 23:00:00,
2013-01-17 15:10:00,51.5,30.8,30.15,NE,56,0.0,0.0,45,0.00,,,0.00,0,Wunderground v.1.15,2013-01-17 23:10:00,
2013-01-17 15:20:00,51.7,30.5,30.15,NE,56,2.0,2.0,44,0.00,,,0.00,0,Wunderground v.1.15,2013-01-17 23:20:00,
2013-01-17 15:35:00,51.3,30.7,30.15,NE,44,2.0,2.0,45,0.00,,,0.00,0,Wunderground v.1.15,2013-01-17 23:35:00,
2013-01-17 15:40:00,51.2,30.6,30.15,NE,48,2.0,2.0,45,0.00,,,0.00,0,Wunderground v.1.15,2013-01-17 23:40:00,
2013-01-17 15:50:00,51.0,30.4,30.15,NE,48,2.0,2.0,45,0.00,,,0.00,0,Wunderground v.1.15,2013-01-17 23:50:00,
2013-01-17 16:00:00,50.9,30.3,30.15,NE,42,0.0,0.0,45,0.00,,,0.00,0,Wunderground v.1.15,2013-01-18 00:00:00,
2013-01-17 16:10:00,50.6,30.0,30.15,NE,42,1.0,1.0,45,0.00,,,0.00,0,Wunderground v.1.15,2013-01-18 00:10:00,
2013-01-17 16:20:00,50.1,29.6,30.15,NE,43,3.0,3.0,45,0.00,,,0.00,0,Wunderground v.1.15,2013-01-18 00:20:00,
2013-01-17 16:30:00,49.3,29.4,30.16,NE,43,0.0,0.0,46,0.00,,,0.00,0,Wunderground v.1.15,2013-01-18 00:30:00,
2013-01-17 16:40:00,47.9,29.1,30.16,NE,43,0.0,0.0,48,0.00,,,0.00,0,Wunderground v.1.15,2013-01-18 00:40:00,
2013-01-17 16:50:00,46.9,28.7,30.16,East,80,0.0,0.0,49,0.00,,,0.00,0,Wunderground v.1.15,2013-01-18 00:50:00,
2013-01-17 17:00:00,44.0,27.0,30.16,East,80,0.0,0.0,51,0.00,,,0.00,0,Wunderground v.1.15,2013-01-18 01:00:00,
2013-01-17 17:10:00,41.4,26.4,30.16,East,80,0.0,0.0,55,0.00,,,0.00,0,Wunderground v.1.15,2013-01-18 01:10:00,
2013-01-17 17:20:00,39.4,26.7,30.16,East,80,0.0,0.0,60,0.00,,,0.00,0,Wunderground v.1.15,2013-01-18 01:20:00,
2013-01-17 17:30:00,37.9,27.5,30.16,SSE,164,3.0,3.0,66,0.00,,,0.00,0,Wunderground v.1.15,2013-01-18 01:30:00,
2013-01-17 17:45:00,35.0,26.9,30.16,South,173,2.0,2.0,72,0.00,,,0.00,0,Wunderground v.1.15,2013-01-18 01:45:00,
2013-01-17 17:50:00,34.2,26.8,30.16,South,173,2.0,2.0,74,0.00,,,0.00,0,Wunderground v.1.15,2013-01-18 01:50:00,
2013-01-17 18:00:00,32.4,26.0,30.16,South,173,0.0,0.0,77,0.00,,,0.00,0,Wunderground v.1.15,2013-01-18 02:00:00,
2013-01-17 18:10:00,31.2,25.4,30.16,South,173,0.0,0.0,79,0.00,,,0.00,0,Wunderground v.1.15,2013-01-18 02:10:00,
2013-01-17 18:20:00,30.4,24.7,30.16,South,173,0.0,0.0,79,0.00,,,0.00,0,Wunderground v.1.15,2013-01-18 02:20:00,
2013-01-17 18:30:00,29.8,24.7,30.16,South,173,0.0,0.0,81,0.00,,,0.00,0,Wunderground v.1.15,2013-01-18 02:30:00,
2013-01-17 18:40:00,28.5,24.0,30.16,WSW,238,0.0,0.0,83,0.00,,,0.00,0,Wunderground v.1.15,2013-01-18 02:40:00,
2013-01-17 18:50:00,27.8,23.6,30.16,WSW,238,0.0,0.0,84,0.00,,,0.00,0,Wunderground v.1.15,2013-01-18 02:50:00,
2013-01-17 19:00:00,27.7,23.8,30.16,WSW,238,0.0,0.0,85,0.00,,,0.00,0,Wunderground v.1.15,2013-01-18 03:00:00,
2013-01-17 19:10:00,27.4,23.8,30.16,WSW,238,0.0,0.0,86,0.00,,,0.00,0,Wunderground v.1.15,2013-01-18 03:10:00,
2013-01-17 19:20:00,26.5,22.9,30.16,WSW,238,0.0,0.0,86,0.00,,,0.00,0,Wunderground v.1.15,2013-01-18 03:20:00,
2013-01-17 19:31:00,25.9,22.6,30.17,WSW,238,0.0,0.0,87,0.00,,,0.00,0,Wunderground v.1.15,2013-01-18 03:31:00,
2013-01-17 19:40:00,25.4,22.1,30.17,WSW,238,0.0,0.0,87,0.00,,,0.00,0,Wunderground v.1.15,2013-01-18 03:40:00,
2013-01-17 19:50:00,25.2,22.1,30.17,WSW,238,0.0,0.0,88,0.00,,,0.00,0,Wunderground v.1.15,2013-01-18 03:50:00,
2013-01-17 20:00:00,25.2,22.1,30.17,WSW,238,0.0,0.0,88,0.00,,,0.00,0,Wunderground v.1.15,2013-01-18 04:00:00,
2013-01-17 20:10:00,25.4,22.6,30.17,WSW,238,0.0,0.0,89,0.00,,,0.00,0,Wunderground v.1.15,2013-01-18 04:10:00,
2013-01-17 20:20:00,25.4,22.9,30.17,WSW,238,0.0,0.0,90,0.00,,,0.00,0,Wunderground v.1.15,2013-01-18 04:20:00,
2013-01-17 20:30:00,25.1,22.6,30.17,WSW,238,0.0,0.0,90,0.00,,,0.00,0,Wunderground v.1.15,2013-01-18 04:30:00,
2013-01-17 20:40:00,25.0,22.5,30.17,WSW,238,0.0,0.0,90,0.00,,,0.00,0,Wunderground v.1.15,2013-01-18 04:40:00,
2013-01-17 20:50:00,24.6,22.3,30.17,WSW,238,0.0,0.0,91,0.00,,,0.00,0,Wunderground v.1.15,2013-01-18 04:50:00,
2013-01-17 21:01:00,24.0,21.8,30.17,WSW,238,0.0,0.0,91,0.00,,,0.00,0,Wunderground v.1.15,2013-01-18 05:01:00,
2013-01-17 21:05:00,23.9,21.9,30.17,WSW,238,0.0,0.0,92,0.00,,,0.00,0,Wunderground v.1.15,2013-01-18 05:05:00,
2013-01-17 21:10:00,23.7,21.5,30.17,WSW,238,1.0,1.0,91,0.00,,,0.00,0,Wunderground v.1.15,2013-01-18 05:10:00,
2013-01-17 21:20:00,23.8,21.8,30.17,WSW,238,1.0,1.0,92,0.00,,,0.00,0,Wunderground v.1.15,2013-01-18 05:20:00,
2013-01-17 21:25:00,23.9,22.2,30.17,WSW,238,2.0,2.0,93,0.00,,,0.00,0,Wunderground v.1.15,2013-01-18 05:25:00,
2013-01-17 21:31:00,23.9,22.2,30.17,WSW,238,0.0,2.0,93,0.00,,,0.00,0,Wunderground v.1.15,2013-01-18 05:31:00,
2013-01-17 21:40:00,23.5,21.8,30.17,WSW,238,0.0,0.0,93,0.00,,,0.00,0,Wunderground v.1.15,2013-01-18 05:40:00,
2013-01-17 21:50:00,23.0,21.3,30.17,WSW,238,0.0,0.0,93,0.00,,,0.00,0,Wunderground v.1.15,2013-01-18 05:50:00,
2013-01-17 22:00:00,22.3,20.8,30.16,WSW,238,0.0,0.0,94,0.00,,,0.00,0,Wunderground v.1.15,2013-01-18 06:00:00,
2013-01-17 22:10:00,22.3,20.8,30.16,WSW,238,0.0,0.0,94,0.00,,,0.00,0,Wunderground v.1.15,2013-01-18 06:10:00,
2013-01-17 22:20:00,22.1,20.6,30.16,WSW,238,0.0,0.0,94,0.00,,,0.00,0,Wunderground v.1.15,2013-01-18 06:20:00,
2013-01-17 22:30:00,21.8,20.3,30.16,WSW,238,0.0,0.0,94,0.00,,,0.00,0,Wunderground v.1.15,2013-01-18 06:30:00,
2013-01-17 22:40:00,21.5,20.0,30.16,WSW,238,0.0,0.0,94,0.00,,,0.00,0,Wunderground v.1.15,2013-01-18 06:40:00,
2013-01-17 22:50:00,21.4,20.2,30.16,WSW,238,0.0,0.0,95,0.00,,,0.00,0,Wunderground v.1.15,2013-01-18 06:50:00,
2013-01-17 23:00:00,21.4,20.2,30.16,WSW,238,0.0,0.0,95,0.00,,,0.00,0,Wunderground v.1.15,2013-01-18 07:00:00,
2013-01-17 23:10:00,21.0,20.0,30.16,WSW,238,0.0,0.0,96,0.00,,,0.00,0,Wunderground v.1.15,2013-01-18 07:10:00,
2013-01-17 23:20:00,20.9,19.9,30.17,WSW,238,0.0,0.0,96,0.00,,,0.00,0,Wunderground v.1.15,2013-01-18 07:20:00,
2013-01-17 23:30:00,20.5,19.5,30.17,WSW,238,0.0,0.0,96,0.00,,,0.00,0,Wunderground v.1.15,2013-01-18 07:30:00,
2013-01-17 23:40:00,19.9,18.9,30.17,WSW,238,0.0,0.0,96,0.00,,,0.00,0,Wunderground v.1.15,2013-01-18 07:40:00,
2013-01-17 23:50:00,19.8,18.8,30.16,WSW,238,0.0,0.0,96,0.00,,,0.00,0,Wunderground v.1.15,2013-01-18 07:50:00,